Time;durP1;ratioP1;P1;durP2;ratioP2;P2;SDS_P1;SDS_P2;PMS_P1;PMS_P2;Temp;Humidity;BMP_temperature;BMP_pressure;BME280_temperature;BME280_humidity;BME280_pressure;Samples;Min_cycle;Max_cycle;Signal;HPM_P1;HPM_P2
2022/08/28 00:01:35;;;;;;;;;;;18.90;65.60;;;;;;5079216;28;19999;-45
2022/08/28 00:04:00;;;;;;;;;;;18.90;66.60;;;;;;5079236;28;19952;-46
2022/08/28 00:06:26;;;;;;;;;;;18.90;67.20;;;;;;5079337;28;19909;-46
2022/08/28 00:08:52;;;;;;;;;;;18.90;65.40;;;;;;5079261;28;19947;-46
2022/08/28 00:11:19;;;;;;;;;;;18.80;67.50;;;;;;5079011;28;19908;-50
2022/08/28 00:13:45;;;;;;;;;;;18.80;65.80;;;;;;5078752;28;19913;-46
2022/08/28 00:16:11;;;;;;;;;;;18.80;66.10;;;;;;5079082;28;19916;-46
2022/08/28 00:18:37;;;;;;;;;;;18.80;66.70;;;;;;5079045;28;19912;-45
2022/08/28 00:21:03;;;;;;;;;;;18.80;68.10;;;;;;5078746;28;20383;-45
2022/08/28 00:23:29;;;;;;;;;;;18.80;65.90;;;;;;5078976;28;19908;-45
2022/08/28 00:25:54;;;;;;;;;;;18.70;66.70;;;;;;5078808;28;19913;-45
2022/08/28 00:28:20;;;;;;;;;;;18.70;66.90;;;;;;5078886;28;19915;-45
2022/08/28 00:30:47;;;;;;;;;;;18.70;67.60;;;;;;5078798;28;19939;-46
2022/08/28 00:33:14;;;;;;;;;;;18.70;66.50;;;;;;5078688;28;19908;-46
2022/08/28 00:35:40;;;;;;;;;;;18.70;67.90;;;;;;5078622;28;19916;-45
2022/08/28 00:38:06;;;;;;;;;;;18.70;69.50;;;;;;5078490;28;20392;-45
2022/08/28 00:40:32;;;;;;;;;;;18.70;67.40;;;;;;5078401;28;19944;-45
2022/08/28 00:43:00;;;;;;;;;;;18.60;69.60;;;;;;5078387;28;19940;-45
2022/08/28 00:45:26;;;;;;;;;;;18.60;67.80;;;;;;5077914;28;19912;-48
2022/08/28 00:47:52;;;;;;;;;;;18.60;67.50;;;;;;5078177;28;19915;-46
2022/08/28 00:50:19;;;;;;;;;;;18.50;67.50;;;;;;5078377;28;19980;-46
2022/08/28 00:52:46;;;;;;;;;;;18.50;67.60;;;;;;5078350;28;19915;-45
2022/08/28 00:55:22;;;;;;;;;;;18.50;66.50;;;;;;5078287;28;20368;-48
2022/08/28 00:57:50;;;;;;;;;;;18.50;67.00;;;;;;5077736;28;19920;-46
2022/08/28 01:00:18;;;;;;;;;;;18.50;67.70;;;;;;5077895;28;20321;-46
2022/08/28 01:02:44;;;;;;;;;;;18.50;70.70;;;;;;5078019;28;19917;-45
2022/08/28 01:05:10;;;;;;;;;;;18.50;67.40;;;;;;5077969;28;20003;-46
2022/08/28 01:07:37;;;;;;;;;;;18.50;67.80;;;;;;5078470;28;20021;-45
2022/08/28 01:10:04;;;;;;;;;;;18.50;67.80;;;;;;5077881;28;19913;-46
2022/08/28 01:12:31;;;;;;;;;;;18.50;67.10;;;;;;5077738;28;20377;-48
2022/08/28 01:14:58;;;;;;;;;;;18.40;66.80;;;;;;5077891;28;19909;-45
2022/08/28 01:17:27;;;;;;;;;;;18.40;68.10;;;;;;5077738;28;19912;-46
2022/08/28 01:19:55;;;;;;;;;;;18.40;67.40;;;;;;5077946;28;19951;-45
2022/08/28 01:22:21;;;;;;;;;;;18.40;66.80;;;;;;5077943;28;19909;-46
2022/08/28 01:24:48;;;;;;;;;;;18.30;67.60;;;;;;5077708;28;19909;-45
2022/08/28 01:27:14;;;;;;;;;;;18.30;68.00;;;;;;5078535;28;19909;-46
2022/08/28 01:29:39;;;;;;;;;;;18.30;68.00;;;;;;5076599;28;19909;-47
2022/08/28 01:32:05;;;;;;;;;;;18.30;68.60;;;;;;5077623;28;20002;-45
2022/08/28 01:34:31;;;;;;;;;;;18.30;67.70;;;;;;5077746;28;20034;-45
2022/08/28 01:36:57;;;;;;;;;;;18.30;68.30;;;;;;5078008;28;19998;-45
2022/08/28 01:39:24;;;;;;;;;;;18.30;69.20;;;;;;5077526;28;19917;-46
2022/08/28 01:41:50;;;;;;;;;;;18.30;68.50;;;;;;5077749;28;19916;-47
2022/08/28 01:44:18;;;;;;;;;;;18.30;71.10;;;;;;5077466;28;20417;-46
2022/08/28 01:46:44;;;;;;;;;;;18.30;67.90;;;;;;5078011;28;19908;-46
2022/08/28 01:49:10;;;;;;;;;;;18.30;67.70;;;;;;5078104;28;19909;-48
2022/08/28 01:51:40;;;;;;;;;;;18.20;68.70;;;;;;5077850;28;19912;-45
2022/08/28 01:54:06;;;;;;;;;;;18.20;69.10;;;;;;5077745;28;19912;-48
2022/08/28 01:56:32;;;;;;;;;;;18.20;68.00;;;;;;5077485;28;20330;-47
2022/08/28 01:59:00;;;;;;;;;;;18.20;68.30;;;;;;5080279;28;19912;-47
2022/08/28 02:01:25;;;;;;;;;;;18.20;67.60;;;;;;5081732;28;19912;-47
2022/08/28 02:03:54;;;;;;;;;;;18.20;69.20;;;;;;5081508;28;19908;-46
2022/08/28 02:06:20;;;;;;;;;;;18.20;68.60;;;;;;5081394;28;19970;-45
2022/08/28 02:08:48;;;;;;;;;;;18.20;69.20;;;;;;5081646;28;19913;-45
2022/08/28 02:11:15;;;;;;;;;;;18.10;68.00;;;;;;5081544;28;19908;-46
2022/08/28 02:13:40;;;;;;;;;;;18.10;70.10;;;;;;5081384;28;19908;-45
2022/08/28 02:16:08;;;;;;;;;;;18.10;69.00;;;;;;5081670;28;19919;-45
2022/08/28 02:18:33;;;;;;;;;;;18.10;68.40;;;;;;5081269;28;19909;-45
2022/08/28 02:21:00;;;;;;;;;;;18.10;69.90;;;;;;5081608;28;20293;-45
2022/08/28 02:23:26;;;;;;;;;;;18.10;68.60;;;;;;5081264;28;20059;-50
2022/08/28 02:25:51;;;;;;;;;;;18.00;70.90;;;;;;5080772;28;20317;-46
2022/08/28 02:28:17;;;;;;;;;;;18.00;68.50;;;;;;5081228;28;20332;-45
2022/08/28 02:30:42;;;;;;;;;;;18.00;70.80;;;;;;5081128;28;19908;-46
2022/08/28 02:33:08;;;;;;;;;;;18.00;69.50;;;;;;5081073;28;19909;-46
2022/08/28 02:35:34;;;;;;;;;;;18.00;70.30;;;;;;5080852;28;20003;-45
2022/08/28 02:38:00;;;;;;;;;;;18.00;70.50;;;;;;5081155;28;19915;-47
2022/08/28 02:40:26;;;;;;;;;;;18.00;70.10;;;;;;5080506;28;20284;-45
2022/08/28 02:42:52;;;;;;;;;;;18.00;68.30;;;;;;5080915;28;19908;-46
2022/08/28 02:45:18;;;;;;;;;;;17.90;71.10;;;;;;5080618;28;19936;-48
2022/08/28 02:47:44;;;;;;;;;;;17.90;70.90;;;;;;5080626;28;20284;-45
2022/08/28 02:50:11;;;;;;;;;;;17.90;71.90;;;;;;5080726;28;19908;-47
2022/08/28 02:52:37;;;;;;;;;;;17.90;69.80;;;;;;5080561;28;19912;-45
2022/08/28 02:55:06;;;;;;;;;;;17.90;68.90;;;;;;5080809;28;19951;-46
2022/08/28 02:57:32;;;;;;;;;;;17.90;68.30;;;;;;5080294;28;20288;-47
2022/08/28 02:59:58;;;;;;;;;;;17.80;68.50;;;;;;5080229;28;19927;-47
2022/08/28 03:02:24;;;;;;;;;;;17.80;69.60;;;;;;5080693;28;20253;-46
2022/08/28 03:04:50;;;;;;;;;;;17.80;69.60;;;;;;5080203;28;19909;-45
2022/08/28 03:07:16;;;;;;;;;;;17.70;68.50;;;;;;5080512;28;19976;-47
2022/08/28 03:09:42;;;;;;;;;;;17.80;70.30;;;;;;5080076;28;19908;-45
2022/08/28 03:12:09;;;;;;;;;;;17.80;70.60;;;;;;5080168;28;20380;-46
2022/08/28 03:14:35;;;;;;;;;;;17.70;69.80;;;;;;5080340;28;19909;-45
2022/08/28 03:17:01;;;;;;;;;;;17.70;69.90;;;;;;5080308;28;20006;-45
2022/08/28 03:19:27;;;;;;;;;;;17.70;69.60;;;;;;5080201;28;19917;-45
2022/08/28 03:21:53;;;;;;;;;;;17.70;69.70;;;;;;5080012;28;19909;-45
2022/08/28 03:24:18;;;;;;;;;;;17.70;69.30;;;;;;5080505;28;19912;-45
2022/08/28 03:26:45;;;;;;;;;;;17.70;70.30;;;;;;5079901;28;19916;-45
2022/08/28 03:29:10;;;;;;;;;;;17.70;69.50;;;;;;5079706;28;19931;-45
2022/08/28 03:31:37;;;;;;;;;;;17.70;68.90;;;;;;5079867;28;20371;-47
2022/08/28 03:34:04;;;;;;;;;;;17.70;69.90;;;;;;5079611;28;19909;-45
2022/08/28 03:36:30;;;;;;;;;;;17.70;68.80;;;;;;5080002;28;19909;-47
2022/08/28 03:38:57;;;;;;;;;;;17.70;71.40;;;;;;5079713;28;19916;-46
2022/08/28 03:41:24;;;;;;;;;;;17.70;70.00;;;;;;5080061;28;19931;-46
2022/08/28 03:43:50;;;;;;;;;;;17.70;69.80;;;;;;5079547;28;20360;-47
2022/08/28 03:46:17;;;;;;;;;;;17.70;70.80;;;;;;5079780;28;19912;-46
2022/08/28 03:48:43;;;;;;;;;;;17.70;70.60;;;;;;5079523;28;19915;-45
2022/08/28 03:51:11;;;;;;;;;;;17.60;71.10;;;;;;5079731;28;19976;-45
2022/08/28 03:53:36;;;;;;;;;;;17.60;69.60;;;;;;5079607;28;19999;-45
2022/08/28 03:56:05;;;;;;;;;;;17.60;71.10;;;;;;5079362;28;19909;-45
2022/08/28 03:58:30;;;;;;;;;;;17.60;69.30;;;;;;5078998;28;19920;-45
2022/08/28 04:00:56;;;;;;;;;;;17.60;69.10;;;;;;5079266;28;20015;-46
2022/08/28 04:03:21;;;;;;;;;;;17.60;69.00;;;;;;5079437;28;19913;-46
2022/08/28 04:05:47;;;;;;;;;;;17.60;69.50;;;;;;5079371;28;19915;-47
2022/08/28 04:08:14;;;;;;;;;;;17.50;70.10;;;;;;5079617;28;19909;-45
2022/08/28 04:10:41;;;;;;;;;;;17.60;69.50;;;;;;5079250;28;19909;-45
2022/08/28 04:13:07;;;;;;;;;;;17.60;69.00;;;;;;5079197;28;19916;-45
2022/08/28 04:15:33;;;;;;;;;;;17.60;69.20;;;;;;5078585;28;19909;-45
2022/08/28 04:17:59;;;;;;;;;;;17.50;69.70;;;;;;5078708;28;20296;-45
2022/08/28 04:20:25;;;;;;;;;;;17.50;69.80;;;;;;5078268;28;20372;-46
2022/08/28 04:22:51;;;;;;;;;;;17.50;69.00;;;;;;5078783;28;20430;-45
2022/08/28 04:25:16;;;;;;;;;;;17.50;69.70;;;;;;5079339;28;19913;-46
2022/08/28 04:27:42;;;;;;;;;;;17.50;70.00;;;;;;5078877;28;20288;-48
2022/08/28 04:30:08;;;;;;;;;;;17.50;70.00;;;;;;5078729;28;19995;-47
2022/08/28 04:32:34;;;;;;;;;;;17.50;69.70;;;;;;5078591;28;19908;-46
2022/08/28 04:35:00;;;;;;;;;;;17.50;70.70;;;;;;5078756;28;20388;-46
2022/08/28 04:37:26;;;;;;;;;;;17.40;69.90;;;;;;5078892;28;19963;-45
2022/08/28 04:39:52;;;;;;;;;;;17.40;71.30;;;;;;5078621;28;19919;-47
2022/08/28 04:42:18;;;;;;;;;;;17.40;70.40;;;;;;5078807;28;19908;-45
2022/08/28 04:44:44;;;;;;;;;;;17.40;69.40;;;;;;5078466;28;19958;-46
2022/08/28 04:47:10;;;;;;;;;;;17.40;72.40;;;;;;5078963;28;19913;-47
2022/08/28 04:49:36;;;;;;;;;;;17.40;70.00;;;;;;5078372;28;19955;-47
2022/08/28 04:52:02;;;;;;;;;;;17.40;70.00;;;;;;5078392;28;19909;-48
2022/08/28 04:54:27;;;;;;;;;;;17.40;71.90;;;;;;5078198;28;19951;-46
2022/08/28 04:56:53;;;;;;;;;;;17.30;69.90;;;;;;5078193;28;19917;-46
2022/08/28 04:59:19;;;;;;;;;;;17.30;71.40;;;;;;5067702;28;20447;-45
2022/08/28 05:01:44;;;;;;;;;;;17.30;72.00;;;;;;5058244;28;19908;-46
2022/08/28 05:04:10;;;;;;;;;;;17.30;72.50;;;;;;5060002;28;19920;-50
2022/08/28 05:06:42;;;;;;;;;;;17.30;72.00;;;;;;5058417;28;19912;-45
2022/08/28 05:09:08;;;;;;;;;;;17.30;71.10;;;;;;5060146;28;19958;-47
2022/08/28 05:11:33;;;;;;;;;;;17.30;70.60;;;;;;5058080;28;19908;-45
2022/08/28 05:13:59;;;;;;;;;;;17.30;72.60;;;;;;5064417;28;19919;-45
2022/08/28 05:16:24;;;;;;;;;;;17.30;72.60;;;;;;5078170;28;19957;-45
2022/08/28 05:18:50;;;;;;;;;;;17.30;72.50;;;;;;5076536;28;19917;-45
2022/08/28 05:21:20;;;;;;;;;;;17.30;73.30;;;;;;5078268;28;20287;-48
2022/08/28 05:23:47;;;;;;;;;;;17.50;73.50;;;;;;5074948;28;19923;-46
2022/08/28 05:26:13;;;;;;;;;;;17.50;72.70;;;;;;5057745;28;19974;-46
2022/08/28 05:28:39;;;;;;;;;;;17.50;73.40;;;;;;5058099;28;19952;-45
2022/08/28 05:31:11;;;;;;;;;;;17.50;71.20;;;;;;5077300;28;19908;-46
2022/08/28 05:33:37;;;;;;;;;;;17.50;72.20;;;;;;5074916;28;19920;-45
2022/08/28 05:36:05;;;;;;;;;;;17.60;72.20;;;;;;5058116;28;19909;-45
2022/08/28 05:38:31;;;;;;;;;;;17.60;71.30;;;;;;5057325;28;19912;-45
2022/08/28 05:40:57;;;;;;;;;;;17.60;73.60;;;;;;5059423;28;20336;-48
2022/08/28 05:43:24;;;;;;;;;;;17.70;72.90;;;;;;5057199;28;19958;-45
2022/08/28 05:46:00;;;;;;;;;;;17.80;73.50;;;;;;5076572;28;20446;-46
2022/08/28 05:48:30;;;;;;;;;;;17.80;72.30;;;;;;5077594;28;19913;-47
2022/08/28 05:51:06;;;;;;;;;;;17.90;72.40;;;;;;5058345;28;19917;-46
2022/08/28 05:53:37;;;;;;;;;;;18.00;72.60;;;;;;5057051;28;19916;-52
2022/08/28 05:56:04;;;;;;;;;;;18.00;72.20;;;;;;5057202;28;19963;-46
2022/08/28 05:58:30;;;;;;;;;;;18.10;71.50;;;;;;5056895;28;19960;-46
2022/08/28 06:01:06;;;;;;;;;;;18.10;72.20;;;;;;5059700;28;20389;-46
2022/08/28 06:03:32;;;;;;;;;;;18.20;72.20;;;;;;5056984;28;19915;-46
2022/08/28 06:05:59;;;;;;;;;;;18.20;72.10;;;;;;5076352;28;20368;-48
2022/08/28 06:08:25;;;;;;;;;;;18.20;71.70;;;;;;5073123;28;19913;-48
2022/08/28 06:10:51;;;;;;;;;;;18.30;71.60;;;;;;5077206;28;19947;-49
2022/08/28 06:13:16;;;;;;;;;;;18.30;71.40;;;;;;5072208;28;19920;-45
2022/08/28 06:15:42;;;;;;;;;;;18.30;71.10;;;;;;5057630;28;19909;-45
2022/08/28 06:18:08;;;;;;;;;;;18.40;71.70;;;;;;5057602;28;19921;-46
2022/08/28 06:20:41;;;;;;;;;;;18.40;71.10;;;;;;5076046;28;20387;-52
2022/08/28 06:23:11;;;;;;;;;;;18.40;70.60;;;;;;5075685;28;19909;-46
2022/08/28 06:25:41;;;;;;;;;;;18.30;71.00;;;;;;5077289;28;20383;-49
2022/08/28 06:28:06;;;;;;;;;;;18.30;70.60;;;;;;5075274;28;19916;-47
2022/08/28 06:30:36;;;;;;;;;;;18.20;71.00;;;;;;5077222;28;19909;-46
2022/08/28 06:33:02;;;;;;;;;;;18.20;71.30;;;;;;5076083;28;19909;-47
2022/08/28 06:35:30;;;;;;;;;;;18.20;71.00;;;;;;5059902;28;19992;-45
2022/08/28 06:37:56;;;;;;;;;;;18.20;70.60;;;;;;5056973;28;20415;-46
2022/08/28 06:40:21;;;;;;;;;;;18.20;70.60;;;;;;5057859;28;19917;-48
2022/08/28 06:42:47;;;;;;;;;;;18.30;71.00;;;;;;5057343;28;20449;-50
2022/08/28 06:45:12;;;;;;;;;;;18.30;71.00;;;;;;5058922;28;19909;-45
2022/08/28 06:47:38;;;;;;;;;;;18.30;71.00;;;;;;5060738;28;19916;-45
2022/08/28 06:50:04;;;;;;;;;;;18.40;70.80;;;;;;5061019;28;20399;-49
2022/08/28 06:52:30;;;;;;;;;;;18.40;71.30;;;;;;5059157;28;19909;-46
2022/08/28 06:54:56;;;;;;;;;;;18.40;70.90;;;;;;5060682;28;19935;-50
2022/08/28 06:57:22;;;;;;;;;;;18.40;70.70;;;;;;5060278;28;19943;-46
2022/08/28 06:59:48;;;;;;;;;;;18.50;71.10;;;;;;5060183;28;19917;-49
2022/08/28 07:02:14;;;;;;;;;;;18.50;71.10;;;;;;5060466;28;19959;-47
2022/08/28 07:04:41;;;;;;;;;;;18.50;71.00;;;;;;5061192;28;19986;-49
2022/08/28 07:07:07;;;;;;;;;;;18.60;71.40;;;;;;5060495;28;19909;-49
2022/08/28 07:09:36;;;;;;;;;;;18.60;70.70;;;;;;5060464;28;19913;-50
2022/08/28 07:12:02;;;;;;;;;;;18.60;70.80;;;;;;5049158;28;19908;-46
2022/08/28 07:14:28;;;;;;;;;;;18.70;70.70;;;;;;5079692;28;20341;-50
2022/08/28 07:16:53;;;;;;;;;;;18.80;70.80;;;;;;5079989;28;19912;-47
2022/08/28 07:19:19;;;;;;;;;;;18.80;70.40;;;;;;5079486;28;19916;-50
2022/08/28 07:21:46;;;;;;;;;;;18.90;70.30;;;;;;5079794;28;19909;-47
2022/08/28 07:24:14;;;;;;;;;;;19.00;70.20;;;;;;5079347;28;19908;-47
2022/08/28 07:26:40;;;;;;;;;;;19.00;70.30;;;;;;5079675;28;19916;-50
2022/08/28 07:29:09;;;;;;;;;;;19.10;70.50;;;;;;5079415;28;19913;-48
2022/08/28 07:31:35;;;;;;;;;;;19.20;70.20;;;;;;5079536;28;19975;-47
2022/08/28 07:34:01;;;;;;;;;;;19.20;69.90;;;;;;5079441;28;20003;-47
2022/08/28 07:36:27;;;;;;;;;;;19.30;69.80;;;;;;5079743;28;19959;-45
2022/08/28 07:38:54;;;;;;;;;;;19.30;70.10;;;;;;5079445;28;19912;-48
2022/08/28 07:41:22;;;;;;;;;;;19.40;70.00;;;;;;5079305;28;20269;-49
2022/08/28 07:46:32;;;;;;;;;;;19.50;69.10;;;;;;5079413;28;20279;-49
2022/08/28 07:48:58;;;;;;;;;;;19.60;69.40;;;;;;5079424;28;19909;-48
2022/08/28 07:51:25;;;;;;;;;;;19.60;69.20;;;;;;5067187;28;19935;-47
2022/08/28 07:57:36;;;;;;;;;;;19.70;68.30;;;;;;5082071;27;2244109;-50
2022/08/28 08:00:02;;;;;;;;;;;19.80;68.20;;;;;;5156006;27;19947;-52
2022/08/28 08:02:28;;;;;;;;;;;19.80;67.80;;;;;;5156597;27;19962;-50
2022/08/28 08:04:54;;;;;;;;;;;19.90;68.50;;;;;;5137888;27;20498;-53
2022/08/28 08:07:20;;;;;;;;;;;20.00;67.00;;;;;;5155654;27;19932;-52
2022/08/28 08:09:46;;;;;;;;;;;20.00;66.70;;;;;;5155898;27;19939;-51
2022/08/28 08:12:13;;;;;;;;;;;20.10;67.20;;;;;;5153533;27;19918;-53
2022/08/28 08:14:39;;;;;;;;;;;20.20;68.40;;;;;;5135381;27;19958;-47
2022/08/28 08:17:05;;;;;;;;;;;20.30;67.30;;;;;;5135876;27;20389;-50
2022/08/28 08:19:31;;;;;;;;;;;20.40;66.10;;;;;;5135667;27;19908;-50
2022/08/28 08:21:56;;;;;;;;;;;20.40;67.40;;;;;;5135799;27;20347;-53
2022/08/28 08:24:24;;;;;;;;;;;20.60;66.90;;;;;;5135610;27;20374;-52
2022/08/28 08:26:51;;;;;;;;;;;20.70;67.30;;;;;;5136235;27;19986;-48
2022/08/28 08:29:17;;;;;;;;;;;20.80;65.10;;;;;;5136267;27;19912;-52
2022/08/28 08:31:42;;;;;;;;;;;20.80;66.10;;;;;;5135953;27;19914;-53
2022/08/28 08:34:08;;;;;;;;;;;20.90;64.70;;;;;;5137652;27;19990;-50
2022/08/28 08:36:36;;;;;;;;;;;21.00;65.50;;;;;;5127374;27;19912;-46
2022/08/28 08:39:02;;;;;;;;;;;21.10;67.40;;;;;;5114668;28;19912;-48
2022/08/28 08:41:37;;;;;;;;;;;21.30;66.40;;;;;;5119527;27;19907;-51
2022/08/28 08:44:12;;;;;;;;;;;21.40;64.60;;;;;;5135135;27;19916;-48
2022/08/28 08:46:50;;;;;;;;;;;21.40;63.30;;;;;;5128428;27;20380;-48
2022/08/28 08:49:18;;;;;;;;;;;21.40;65.50;;;;;;5114015;28;19965;-49
2022/08/28 08:51:49;;;;;;;;;;;21.60;64.20;;;;;;5120018;27;20369;-48
2022/08/28 08:54:17;;;;;;;;;;;21.70;63.10;;;;;;5135005;27;19912;-48
2022/08/28 08:56:43;;;;;;;;;;;21.80;62.90;;;;;;5131168;27;19912;-48
2022/08/28 08:59:11;;;;;;;;;;;22.00;63.20;;;;;;5130506;27;19924;-49
2022/08/28 09:01:43;;;;;;;;;;;22.10;62.80;;;;;;5134149;27;20277;-49
2022/08/28 09:04:15;;;;;;;;;;;22.20;62.30;;;;;;5136782;27;19908;-48
2022/08/28 09:06:43;;;;;;;;;;;22.30;63.20;;;;;;5132613;28;19915;-49
2022/08/28 09:09:28;;;;;;;;;;;22.40;64.90;;;;;;5116029;27;19919;-51
2022/08/28 09:11:55;;;;;;;;;;;22.60;64.90;;;;;;5106270;27;20025;-51
2022/08/28 09:14:30;;;;;;;;;;;22.90;64.40;;;;;;5121343;28;20383;-51
2022/08/28 09:16:56;;;;;;;;;;;23.00;60.80;;;;;;5120072;28;19916;-52
2022/08/28 09:19:21;;;;;;;;;;;23.00;60.60;;;;;;5119160;27;20431;-48
2022/08/28 09:21:48;;;;;;;;;;;23.10;61.20;;;;;;5114427;28;19916;-48
2022/08/28 09:24:35;;;;;;;;;;;23.10;60.80;;;;;;5112872;27;19918;-51
2022/08/28 09:27:06;;;;;;;;;;;23.00;62.20;;;;;;5100663;28;19930;-48
2022/08/28 09:29:32;;;;;;;;;;;23.10;60.20;;;;;;5116115;27;19911;-51
2022/08/28 09:32:13;;;;;;;;;;;23.00;59.00;;;;;;5118202;28;19965;-47
2022/08/28 09:34:56;;;;;;;;;;;23.00;60.50;;;;;;5119342;28;19912;-46
2022/08/28 09:37:26;;;;;;;;;;;23.00;59.30;;;;;;5120679;28;19916;-53
2022/08/28 09:40:11;;;;;;;;;;;23.00;61.90;;;;;;5120902;28;19971;-52
2022/08/28 09:45:23;;;;;;;;;;;23.50;60.50;;;;;;5110147;28;19965;-53
2022/08/28 09:47:50;;;;;;;;;;;23.80;62.50;;;;;;5102454;28;19912;-50
2022/08/28 09:50:21;;;;;;;;;;;24.30;62.20;;;;;;5120164;28;20005;-48
2022/08/28 09:52:47;;;;;;;;;;;24.60;63.40;;;;;;5120721;28;19911;-54
2022/08/28 09:55:33;;;;;;;;;;;25.00;61.70;;;;;;5120817;28;19912;-48
2022/08/28 09:57:59;;;;;;;;;;;26.00;61.00;;;;;;5100099;28;19924;-49
2022/08/28 10:00:26;;;;;;;;;;;27.20;56.40;;;;;;5119778;27;19918;-54
2022/08/28 10:03:25;;;;;;;;;;;28.70;62.20;;;;;;5118616;28;19912;-50
2022/08/28 10:05:50;;;;;;;;;;;29.70;57.40;;;;;;5079379;28;19911;-46
2022/08/28 10:08:34;;;;;;;;;;;29.70;50.30;;;;;;5115740;28;20442;-51
2022/08/28 10:11:06;;;;;;;;;;;30.30;49.10;;;;;;5119658;28;19914;-49
2022/08/28 10:13:39;;;;;;;;;;;31.00;49.10;;;;;;5119216;28;19930;-51
2022/08/28 10:16:08;;;;;;;;;;;30.70;42.50;;;;;;5119816;28;19961;-51
2022/08/28 10:18:46;;;;;;;;;;;30.50;43.00;;;;;;5119122;28;19914;-51
2022/08/28 10:21:13;;;;;;;;;;;30.60;46.40;;;;;;5119630;28;19911;-54
2022/08/28 10:23:46;;;;;;;;;;;30.50;45.90;;;;;;5120768;28;19908;-53
2022/08/28 10:26:18;;;;;;;;;;;31.70;43.20;;;;;;5120468;28;19956;-51
2022/08/28 10:28:56;;;;;;;;;;;31.50;41.00;;;;;;5118689;28;19952;-52
2022/08/28 10:31:21;;;;;;;;;;;32.30;39.00;;;;;;5127374;27;19976;-50
2022/08/28 10:34:05;;;;;;;;;;;31.60;39.70;;;;;;5140693;27;19907;-54
2022/08/28 10:36:32;;;;;;;;;;;31.60;41.80;;;;;;5140565;27;20297;-52
2022/08/28 10:39:05;;;;;;;;;;;32.30;42.00;;;;;;5128664;27;20370;-49
2022/08/28 10:41:52;;;;;;;;;;;32.50;39.20;;;;;;5107522;28;19911;-52
2022/08/28 10:44:33;;;;;;;;;;;33.30;44.00;;;;;;5119993;27;19969;-51
2022/08/28 10:47:00;;;;;;;;;;;34.00;41.00;;;;;;5119771;28;19914;-48
2022/08/28 10:49:33;;;;;;;;;;;34.90;41.80;;;;;;5119698;28;19914;-49
2022/08/28 10:52:07;;;;;;;;;;;35.30;40.20;;;;;;5119669;28;20338;-51
2022/08/28 10:54:36;;;;;;;;;;;35.40;38.70;;;;;;5119560;28;19916;-52
2022/08/28 10:57:08;;;;;;;;;;;35.60;35.80;;;;;;5119255;28;19919;-50
2022/08/28 10:59:35;;;;;;;;;;;35.50;36.10;;;;;;5119711;28;19908;-52
2022/08/28 11:02:03;;;;;;;;;;;35.00;34.30;;;;;;5119570;28;19950;-53
2022/08/28 11:04:29;;;;;;;;;;;35.20;34.90;;;;;;5119429;28;19911;-49
2022/08/28 11:07:01;;;;;;;;;;;35.50;38.30;;;;;;5119489;28;19915;-48
2022/08/28 11:09:29;;;;;;;;;;;35.80;34.80;;;;;;5119503;28;19961;-52
2022/08/28 11:11:57;;;;;;;;;;;36.10;36.30;;;;;;5119212;28;19908;-51
2022/08/28 11:14:31;;;;;;;;;;;36.30;38.40;;;;;;5109829;28;19912;-51
2022/08/28 11:17:04;;;;;;;;;;;36.80;34.50;;;;;;5099662;28;19919;-52
2022/08/28 11:19:37;;;;;;;;;;;36.90;34.80;;;;;;5117499;28;19939;-51
2022/08/28 11:22:09;;;;;;;;;;;36.60;33.20;;;;;;5110880;28;19912;-53
2022/08/28 11:24:34;;;;;;;;;;;36.20;38.00;;;;;;5111128;28;19912;-52
2022/08/28 11:27:22;;;;;;;;;;;37.00;31.50;;;;;;5118972;28;19914;-52
2022/08/28 11:29:58;;;;;;;;;;;37.50;34.00;;;;;;5118761;28;20382;-50
2022/08/28 11:32:30;;;;;;;;;;;36.70;31.30;;;;;;5119066;28;19947;-50
2022/08/28 11:35:11;;;;;;;;;;;36.10;30.20;;;;;;5118883;28;19969;-54
2022/08/28 11:37:51;;;;;;;;;;;36.70;33.20;;;;;;5118705;28;19934;-51
2022/08/28 11:40:37;;;;;;;;;;;37.20;37.00;;;;;;5119107;28;19918;-48
2022/08/28 11:43:18;;;;;;;;;;;36.90;29.70;;;;;;5118601;28;19914;-52
2022/08/28 11:45:46;;;;;;;;;;;36.70;30.00;;;;;;5118523;28;19908;-50
2022/08/28 11:48:21;;;;;;;;;;;36.30;30.70;;;;;;5118584;28;19908;-52
2022/08/28 11:50:52;;;;;;;;;;;36.10;29.60;;;;;;5118946;28;20243;-51
2022/08/28 11:53:25;;;;;;;;;;;35.80;31.30;;;;;;5118527;28;19916;-49
2022/08/28 11:56:04;;;;;;;;;;;34.80;31.00;;;;;;5118771;28;19912;-50
2022/08/28 11:58:34;;;;;;;;;;;34.20;32.50;;;;;;5118660;28;19919;-51
2022/08/28 12:01:00;;;;;;;;;;;33.70;31.60;;;;;;5118659;28;19915;-50
2022/08/28 12:03:26;;;;;;;;;;;33.90;33.60;;;;;;5118572;28;20362;-49
2022/08/28 12:05:53;;;;;;;;;;;34.70;32.00;;;;;;5118674;28;19908;-53
2022/08/28 12:08:37;;;;;;;;;;;35.10;33.20;;;;;;5118796;28;19918;-54
2022/08/28 12:11:03;;;;;;;;;;;35.50;32.30;;;;;;5118757;28;19915;-52
2022/08/28 12:13:44;;;;;;;;;;;36.00;33.30;;;;;;5118551;28;19908;-50
2022/08/28 12:16:09;;;;;;;;;;;36.60;32.50;;;;;;5117830;28;19919;-52
2022/08/28 12:18:39;;;;;;;;;;;37.30;32.90;;;;;;5117464;28;19908;-50
2022/08/28 12:21:19;;;;;;;;;;;37.00;30.30;;;;;;5118388;28;19957;-50
2022/08/28 12:23:59;;;;;;;;;;;36.40;28.50;;;;;;5118190;28;19908;-53
2022/08/28 12:26:28;;;;;;;;;;;36.80;32.40;;;;;;5117343;28;19914;-51
2022/08/28 12:29:03;;;;;;;;;;;36.10;29.80;;;;;;5115926;28;19908;-54
2022/08/28 12:34:35;;;;;;;;;;;35.00;29.60;;;;;;5115592;28;19965;-51
2022/08/28 12:37:01;;;;;;;;;;;34.80;29.40;;;;;;5117998;28;19912;-49
2022/08/28 12:39:28;;;;;;;;;;;34.40;30.60;;;;;;5117884;28;19914;-53
2022/08/28 12:41:54;;;;;;;;;;;33.80;29.50;;;;;;5116890;28;19980;-54
2022/08/28 12:44:24;;;;;;;;;;;33.80;31.70;;;;;;5121516;28;19912;-51
2022/08/28 12:46:50;;;;;;;;;;;33.50;30.70;;;;;;5121766;28;19908;-51
2022/08/28 12:49:27;;;;;;;;;;;33.90;30.70;;;;;;5121540;28;19911;-50
2022/08/28 12:52:06;;;;;;;;;;;34.60;30.60;;;;;;5121567;28;19907;-54
2022/08/28 12:54:31;;;;;;;;;;;34.20;30.00;;;;;;5121538;28;20381;-49
2022/08/28 12:56:57;;;;;;;;;;;33.50;30.10;;;;;;5121216;28;19911;-52
2022/08/28 12:59:23;;;;;;;;;;;32.50;30.30;;;;;;5121334;28;20344;-53
2022/08/28 13:01:48;;;;;;;;;;;32.70;31.80;;;;;;5121252;28;19915;-50
2022/08/28 13:04:34;;;;;;;;;;;32.60;31.00;;;;;;5121183;28;19931;-49
2022/08/28 13:07:06;;;;;;;;;;;32.30;30.60;;;;;;5121322;28;19908;-53
2022/08/28 13:09:33;;;;;;;;;;;32.20;31.40;;;;;;5121370;28;19915;-46
2022/08/28 13:11:59;;;;;;;;;;;32.60;32.30;;;;;;5121218;28;20362;-50
2022/08/28 13:14:42;;;;;;;;;;;33.10;31.50;;;;;;5120995;28;19962;-53
2022/08/28 13:17:09;;;;;;;;;;;33.20;31.90;;;;;;5121080;28;19912;-52
2022/08/28 13:19:36;;;;;;;;;;;33.10;30.40;;;;;;5120974;28;19922;-52
2022/08/28 13:22:03;;;;;;;;;;;33.30;31.40;;;;;;5120726;28;19941;-49
2022/08/28 13:24:35;;;;;;;;;;;33.00;30.20;;;;;;5121057;28;19907;-51
2022/08/28 13:27:05;;;;;;;;;;;33.40;32.00;;;;;;5120666;28;19950;-51
2022/08/28 13:29:31;;;;;;;;;;;33.80;32.70;;;;;;5120768;28;19908;-48
2022/08/28 13:32:03;;;;;;;;;;;34.00;30.40;;;;;;5120877;28;19994;-49
2022/08/28 13:34:30;;;;;;;;;;;33.50;30.60;;;;;;5120671;28;19908;-53
2022/08/28 13:36:58;;;;;;;;;;;33.80;32.30;;;;;;5120946;28;19911;-51
2022/08/28 13:39:24;;;;;;;;;;;34.30;32.00;;;;;;5119201;28;19952;-51
2022/08/28 13:42:09;;;;;;;;;;;34.80;30.40;;;;;;5120498;27;19908;-51
2022/08/28 13:44:44;;;;;;;;;;;33.40;29.70;;;;;;5120528;28;19907;-50
2022/08/28 13:47:09;;;;;;;;;;;33.20;30.00;;;;;;5120699;27;19908;-48
2022/08/28 13:49:35;;;;;;;;;;;32.60;30.30;;;;;;5120478;27;19914;-52
2022/08/28 13:52:03;;;;;;;;;;;32.10;31.60;;;;;;5120467;28;19969;-49
2022/08/28 13:54:28;;;;;;;;;;;32.60;31.00;;;;;;5120702;28;19939;-54
2022/08/28 13:56:54;;;;;;;;;;;32.50;30.70;;;;;;5120601;28;19916;-51
2022/08/28 13:59:22;;;;;;;;;;;32.50;31.40;;;;;;5120794;28;20370;-48
2022/08/28 14:04:33;;;;;;;;;;;32.20;30.70;;;;;;5120795;28;19961;-53
2022/08/28 14:06:58;;;;;;;;;;;31.70;30.50;;;;;;5120152;28;19908;-49
2022/08/28 14:09:25;;;;;;;;;;;31.70;30.40;;;;;;5120156;28;19907;-55
2022/08/28 14:11:52;;;;;;;;;;;31.50;31.10;;;;;;5120091;28;20038;-53
2022/08/28 14:14:17;;;;;;;;;;;31.10;31.50;;;;;;5119513;28;19995;-49
2022/08/28 14:16:44;;;;;;;;;;;31.10;31.20;;;;;;5120109;27;19947;-52
2022/08/28 14:19:10;;;;;;;;;;;31.40;31.30;;;;;;5119579;28;20369;-53
2022/08/28 14:21:38;;;;;;;;;;;31.50;31.70;;;;;;5119600;28;19915;-50
2022/08/28 14:24:04;;;;;;;;;;;31.60;31.50;;;;;;5119673;28;19908;-54
2022/08/28 14:26:30;;;;;;;;;;;31.60;31.90;;;;;;5120029;28;19908;-47
2022/08/28 14:28:59;;;;;;;;;;;32.20;31.70;;;;;;5119623;28;19968;-52
2022/08/28 14:31:26;;;;;;;;;;;32.00;31.70;;;;;;5120145;28;19908;-53
2022/08/28 14:33:52;;;;;;;;;;;32.30;31.10;;;;;;5118419;28;20358;-50
2022/08/28 14:36:19;;;;;;;;;;;32.10;31.30;;;;;;5119686;28;19912;-50
2022/08/28 14:38:46;;;;;;;;;;;32.10;31.10;;;;;;5115901;28;19912;-47